TimeEDT,TemperatureF,Dew PointF,Humidity,Sea Level PressureIn,VisibilityMPH,Wind Direction,Wind SpeedMPH,Gust SpeedMPH,PrecipitationIn,Events,Conditions,WindDirDegrees,DateUTC
12:51 AM,70.0,66.0,87,29.89,-9999.0,WSW,4.6,-,N/A,,Unknown,240,2013-08-27 04:51:00
1:51 AM,69.1,66.0,90,29.87,-9999.0,Calm,Calm,-,N/A,,Unknown,0,2013-08-27 05:51:00
2:51 AM,69.1,66.0,90,29.87,-9999.0,Variable,4.6,-,N/A,,Unknown,0,2013-08-27 06:51:00
3:51 AM,68.0,66.0,93,29.86,-9999.0,Variable,4.6,-,N/A,,Unknown,0,2013-08-27 07:51:00
4:51 AM,66.9,64.9,93,29.84,-9999.0,Calm,Calm,-,N/A,,Unknown,0,2013-08-27 08:51:00
5:51 AM,66.9,64.9,93,29.85,-9999.0,Calm,Calm,-,N/A,,Unknown,0,2013-08-27 09:51:00
6:51 AM,68.0,66.0,93,29.84,-9999.0,Calm,Calm,-,N/A,,Unknown,0,2013-08-27 10:51:00
7:51 AM,66.9,66.0,97,29.86,-9999.0,Calm,Calm,-,N/A,,Unknown,0,2013-08-27 11:51:00
8:51 AM,69.1,66.9,93,29.86,-9999.0,SSW,3.5,-,N/A,,Unknown,210,2013-08-27 12:51:00
9:51 AM,68.0,64.9,90,29.85,-9999.0,Calm,Calm,-,N/A,,Unknown,0,2013-08-27 13:51:00
10:51 AM,71.1,64.9,81,29.85,-9999.0,Calm,Calm,-,N/A,,Unknown,0,2013-08-27 14:51:00
11:51 AM,73.0,68.0,84,29.86,-9999.0,Variable,3.5,-,N/A,,Unknown,0,2013-08-27 15:51:00
12:51 PM,69.1,64.9,87,29.86,-9999.0,ESE,4.6,-,N/A,,Unknown,120,2013-08-27 16:51:00
1:51 PM,72.0,66.0,81,29.84,-9999.0,Variable,3.5,-,N/A,,Unknown,0,2013-08-27 17:51:00
2:51 PM,68.0,64.9,90,29.84,-9999.0,Variable,5.8,-,N/A,,Unknown,0,2013-08-27 18:51:00
3:51 PM,66.0,63.0,90,29.84,-9999.0,ESE,5.8,-,N/A,,Unknown,110,2013-08-27 19:51:00
4:51 PM,66.9,64.0,90,29.84,-9999.0,Calm,Calm,-,N/A,,Unknown,0,2013-08-27 20:51:00
5:51 PM,63.0,62.1,97,29.87,-9999.0,Calm,Calm,-,N/A,,Unknown,0,2013-08-27 21:51:00
6:51 PM,62.1,61.0,96,29.89,-9999.0,Calm,Calm,-,N/A,,Unknown,0,2013-08-27 22:51:00
7:51 PM,60.1,60.1,100,29.90,-9999.0,Calm,Calm,-,N/A,,Unknown,0,2013-08-27 23:51:00
8:51 PM,60.1,60.1,100,29.89,-9999.0,Calm,Calm,-,N/A,,Unknown,0,2013-08-28 00:51:00
9:51 PM,61.0,61.0,100,29.89,-9999.0,Calm,Calm,-,N/A,,Unknown,0,2013-08-28 01:51:00
10:51 PM,63.0,62.1,97,29.89,-9999.0,WSW,3.5,-,N/A,,Unknown,250,2013-08-28 02:51:00
11:51 PM,64.0,62.1,93,29.88,-9999.0,WSW,5.8,-,N/A,,Unknown,240,2013-08-28 03:51:00